createdAt,value
2023-05-10T00:01:51.274Z,10.55
2023-05-10T00:04:36.312Z,10.47
2023-05-10T00:07:21.950Z,10.55
2023-05-10T00:10:07.384Z,10.56
2023-05-10T00:12:52.437Z,10.51
2023-05-10T00:15:37.192Z,10.54
2023-05-10T00:18:22.225Z,10.61
2023-05-10T00:21:07.349Z,10.52
2023-05-10T00:23:52.389Z,10.49
2023-05-10T00:26:37.582Z,10.51
2023-05-10T00:29:22.314Z,10.50
2023-05-10T00:32:07.480Z,10.50
2023-05-10T00:34:52.894Z,10.49
2023-05-10T00:37:37.906Z,10.51
2023-05-10T00:40:23.002Z,10.51
2023-05-10T00:43:08.317Z,10.49
2023-05-10T00:45:53.896Z,10.43
2023-05-10T00:48:39.264Z,10.49
2023-05-10T00:51:24.430Z,10.41
2023-05-10T00:54:12.587Z,10.50
2023-05-10T00:56:58.305Z,10.47
2023-05-10T00:59:43.346Z,10.45
2023-05-10T01:02:28.772Z,10.42
2023-05-10T01:05:14.482Z,10.42
2023-05-10T01:07:59.589Z,10.41
2023-05-10T01:10:45.088Z,10.42
2023-05-10T01:13:40.344Z,10.40
2023-05-10T01:16:26.369Z,10.40
2023-05-10T01:19:29.198Z,10.48
2023-05-10T01:22:44.377Z,10.49
2023-05-10T01:25:40.371Z,10.51
2023-05-10T01:28:44.502Z,10.52
2023-05-10T01:32:06.965Z,10.51
2023-05-10T01:35:06.598Z,10.46
2023-05-10T01:38:00.181Z,10.44
2023-05-10T01:41:17.370Z,10.53
2023-05-10T01:44:10.843Z,10.56
2023-05-10T01:47:27.054Z,10.57
2023-05-10T01:50:19.192Z,10.58
2023-05-10T01:53:09.007Z,10.52
2023-05-10T01:55:57.072Z,10.58
2023-05-10T01:58:46.957Z,10.64
2023-05-10T02:01:34.252Z,10.69
2023-05-10T02:04:22.827Z,10.71
2023-05-10T02:07:09.464Z,10.68
2023-05-10T02:09:55.840Z,10.65
2023-05-10T02:12:46.235Z,10.77
2023-05-10T02:15:32.218Z,10.82
2023-05-10T02:18:18.953Z,10.85
2023-05-10T02:21:04.525Z,10.79
2023-05-10T02:23:53.221Z,10.86
2023-05-10T02:26:39.349Z,10.86
2023-05-10T02:29:28.660Z,10.88
2023-05-10T02:32:15.445Z,10.91
2023-05-10T02:35:02.861Z,10.84
2023-05-10T02:37:48.891Z,10.74
2023-05-10T02:40:36.275Z,10.81
2023-05-10T02:43:24.032Z,10.73
2023-05-10T02:46:09.337Z,10.75
2023-05-10T02:48:54.979Z,10.81
2023-05-10T02:51:45.867Z,10.79
2023-05-10T02:54:34.183Z,10.69
2023-05-10T02:57:25.875Z,10.76
2023-05-10T03:00:11.641Z,10.76
2023-05-10T03:02:57.190Z,10.74
2023-05-10T03:05:42.477Z,10.68
2023-05-10T03:08:30.279Z,10.75
2023-05-10T03:11:46.279Z,10.73
2023-05-10T03:14:53.908Z,10.64
2023-05-10T03:17:51.318Z,10.74
2023-05-10T03:20:43.474Z,10.78
2023-05-10T03:23:35.016Z,10.82
2023-05-10T03:26:26.743Z,10.85
2023-05-10T03:29:13.980Z,10.82
2023-05-10T03:32:00.833Z,10.81
2023-05-10T03:34:45.973Z,10.68
2023-05-10T03:37:31.045Z,10.82
2023-05-10T03:40:17.094Z,10.91
2023-05-10T03:43:02.534Z,10.93
2023-05-10T03:45:47.778Z,10.93
2023-05-10T03:48:33.709Z,10.91
2023-05-10T03:51:18.914Z,10.91
2023-05-10T03:54:04.003Z,10.91
2023-05-10T03:56:49.151Z,10.92
2023-05-10T03:59:34.026Z,10.90
2023-05-10T04:02:18.832Z,10.85
2023-05-10T04:05:03.868Z,10.87
2023-05-10T04:07:50.277Z,10.89
2023-05-10T04:10:35.444Z,10.89
2023-05-10T04:13:20.789Z,10.86
2023-05-10T04:16:06.244Z,10.86
2023-05-10T04:18:51.441Z,10.79
2023-05-10T04:21:37.390Z,10.86
2023-05-10T04:24:22.697Z,10.86
2023-05-10T04:27:07.506Z,10.87
2023-05-10T04:29:52.489Z,10.87
2023-05-10T04:32:37.483Z,10.80
2023-05-10T04:35:22.475Z,10.81
2023-05-10T04:38:07.898Z,10.84
2023-05-10T04:40:53.663Z,10.83
2023-05-10T04:43:39.079Z,10.85
2023-05-10T04:46:24.592Z,10.87
2023-05-10T04:49:09.557Z,10.88
2023-05-10T04:51:54.950Z,10.77
2023-05-10T04:54:40.182Z,10.78
2023-05-10T04:57:25.195Z,10.83
2023-05-10T05:00:10.909Z,10.84
2023-05-10T05:02:56.271Z,10.90
2023-05-10T05:05:41.204Z,10.76
2023-05-10T05:08:26.711Z,10.92
2023-05-10T05:11:11.788Z,10.81
2023-05-10T05:13:56.776Z,10.95
2023-05-10T05:16:42.036Z,10.96
2023-05-10T05:19:27.066Z,10.98
2023-05-10T05:22:12.180Z,11.00
2023-05-10T05:24:59.099Z,10.97
2023-05-10T05:27:44.092Z,10.90
2023-05-10T05:30:29.190Z,10.96
2023-05-10T05:33:16.350Z,10.93
2023-05-10T05:36:02.710Z,10.96
2023-05-10T05:38:47.633Z,10.94
2023-05-10T05:41:32.857Z,10.94
2023-05-10T05:44:18.176Z,10.97
2023-05-10T05:47:03.422Z,10.96
2023-05-10T05:49:48.420Z,10.86
2023-05-10T05:52:33.406Z,10.93
2023-05-10T05:55:18.959Z,10.94
2023-05-10T05:58:04.182Z,10.92
2023-05-10T06:00:49.795Z,10.87
2023-05-10T06:03:35.215Z,10.87
2023-05-10T06:06:20.188Z,10.81
2023-05-10T06:09:05.517Z,10.79
2023-05-10T06:11:50.596Z,10.80
2023-05-10T06:14:36.062Z,10.82
2023-05-10T06:17:21.165Z,10.78
2023-05-10T06:20:06.899Z,10.96
2023-05-10T06:22:51.952Z,11.01
2023-05-10T06:25:36.901Z,11.15
2023-05-10T06:28:22.120Z,11.19
2023-05-10T06:31:07.910Z,11.30
2023-05-10T06:33:55.308Z,11.41
2023-05-10T06:36:42.185Z,11.43
2023-05-10T06:39:27.530Z,11.53
2023-05-10T06:42:12.511Z,11.56
2023-05-10T06:44:57.725Z,11.71
2023-05-10T06:47:43.343Z,11.85
2023-05-10T06:50:28.754Z,11.88
2023-05-10T06:53:14.206Z,11.84
2023-05-10T06:55:59.347Z,11.83
2023-05-10T06:58:44.516Z,11.84
2023-05-10T07:01:29.655Z,11.79
2023-05-10T07:04:14.917Z,12.03
2023-05-10T07:07:00.254Z,12.14
2023-05-10T07:09:45.897Z,12.12
2023-05-10T07:12:30.797Z,12.04
2023-05-10T07:15:17.128Z,12.19
2023-05-10T07:18:02.693Z,12.29
2023-05-10T07:20:47.842Z,12.39
2023-05-10T07:23:32.831Z,12.43
2023-05-10T07:26:17.546Z,12.49
2023-05-10T07:29:03.309Z,12.54
2023-05-10T07:31:48.469Z,12.60
2023-05-10T07:34:33.441Z,12.68
2023-05-10T07:37:18.460Z,12.86
2023-05-10T07:40:03.530Z,13.01
2023-05-10T07:42:48.717Z,13.10
2023-05-10T07:45:34.949Z,13.16
2023-05-10T07:48:20.091Z,13.24
2023-05-10T07:51:05.404Z,13.27
2023-05-10T07:53:50.551Z,13.36
2023-05-10T07:56:35.977Z,13.63
2023-05-10T07:59:22.030Z,13.90
2023-05-10T08:02:07.806Z,14.19
2023-05-10T08:04:54.010Z,14.22
2023-05-10T08:07:39.418Z,14.36
2023-05-10T08:10:25.756Z,14.13
2023-05-10T08:13:11.153Z,14.16
2023-05-10T08:15:56.196Z,14.16
2023-05-10T08:18:41.702Z,14.17
2023-05-10T08:21:27.239Z,14.15
2023-05-10T08:24:12.324Z,14.33
2023-05-10T08:26:58.258Z,14.41
2023-05-10T08:29:49.909Z,14.59
2023-05-10T08:32:36.033Z,14.82
2023-05-10T08:35:21.218Z,15.06
2023-05-10T08:38:05.991Z,15.07
2023-05-10T08:40:57.473Z,15.07
2023-05-10T08:43:47.182Z,15.00
2023-05-10T08:46:39.790Z,15.14
2023-05-10T08:49:28.316Z,15.08
2023-05-10T08:52:16.021Z,15.20
2023-05-10T08:55:01.665Z,15.27
2023-05-10T08:57:47.603Z,15.40
2023-05-10T09:00:33.127Z,15.36
2023-05-10T09:03:19.052Z,15.31
2023-05-10T09:06:04.072Z,15.63
2023-05-10T09:08:49.592Z,15.83
2023-05-10T09:11:34.888Z,15.85
2023-05-10T09:14:20.931Z,15.88
2023-05-10T09:17:06.216Z,16.12
2023-05-10T09:19:51.376Z,16.32
2023-05-10T09:22:36.662Z,16.48
2023-05-10T09:25:21.614Z,16.54
2023-05-10T09:28:08.575Z,16.71
2023-05-10T09:30:54.710Z,16.75
2023-05-10T09:33:47.236Z,16.75
2023-05-10T09:36:32.220Z,16.82
2023-05-10T09:39:17.400Z,17.15
2023-05-10T09:42:10.516Z,17.60
2023-05-10T09:45:01.376Z,17.63
2023-05-10T09:47:46.979Z,17.40
2023-05-10T09:50:32.011Z,17.03
2023-05-10T09:53:17.687Z,17.10
2023-05-10T09:56:02.901Z,17.45
2023-05-10T09:59:03.225Z,17.63
2023-05-10T10:01:52.511Z,17.50
2023-05-10T10:04:41.617Z,17.30
2023-05-10T10:07:27.266Z,17.21
2023-05-10T10:10:13.411Z,17.60
2023-05-10T10:12:58.745Z,17.71
2023-05-10T10:15:45.460Z,17.95
2023-05-10T10:18:31.734Z,18.09
2023-05-10T10:21:17.621Z,18.37
2023-05-10T10:24:02.691Z,18.11
2023-05-10T10:26:49.461Z,18.36
2023-05-10T10:29:51.420Z,18.45
2023-05-10T10:32:53.079Z,18.80
2023-05-10T10:35:38.920Z,19.02
2023-05-10T10:38:24.425Z,19.09
2023-05-10T10:41:32.514Z,19.03
2023-05-10T10:44:26.948Z,19.14
2023-05-10T10:47:12.907Z,19.41
2023-05-10T10:50:01.504Z,19.67
2023-05-10T10:52:46.960Z,19.50
2023-05-10T10:55:32.225Z,19.74
2023-05-10T10:58:34.305Z,19.15
2023-05-10T11:01:20.148Z,19.47
2023-05-10T11:04:05.179Z,20.07
2023-05-10T11:06:50.020Z,20.08
2023-05-10T11:09:41.057Z,20.27
2023-05-10T11:12:26.177Z,19.90
2023-05-10T11:15:11.564Z,19.49
2023-05-10T11:17:56.894Z,19.17
2023-05-10T11:20:43.230Z,19.24
2023-05-10T11:23:33.161Z,19.03
2023-05-10T11:26:19.300Z,18.62
2023-05-10T11:29:05.916Z,18.33
2023-05-10T11:31:51.915Z,18.62
2023-05-10T11:34:37.052Z,19.29
2023-05-10T11:37:21.927Z,19.58
2023-05-10T11:40:07.430Z,19.49
2023-05-10T11:42:52.841Z,18.99
2023-05-10T11:45:38.171Z,19.55
2023-05-10T11:48:24.831Z,20.03
2023-05-10T11:51:11.162Z,19.76
2023-05-10T11:53:57.537Z,19.99
2023-05-10T11:56:42.529Z,20.58
2023-05-10T11:59:27.466Z,21.11
2023-05-10T12:02:14.255Z,21.12
2023-05-10T12:04:59.644Z,20.44
2023-05-10T12:07:44.661Z,19.61
2023-05-10T12:10:30.069Z,19.38
2023-05-10T12:13:16.206Z,19.44
2023-05-10T12:16:14.065Z,20.22
2023-05-10T12:19:00.839Z,20.85
2023-05-10T12:21:46.082Z,21.12
2023-05-10T12:24:31.383Z,21.44
2023-05-10T12:27:16.313Z,21.72
2023-05-10T12:30:01.720Z,21.84
2023-05-10T12:32:46.991Z,22.16
2023-05-10T12:35:32.352Z,22.38
2023-05-10T12:38:27.793Z,22.44
2023-05-10T12:41:17.852Z,22.46
2023-05-10T12:44:02.940Z,22.85
2023-05-10T12:46:47.912Z,22.83
2023-05-10T12:49:33.171Z,23.15
2023-05-10T12:52:18.371Z,23.59
2023-05-10T12:55:04.168Z,23.61
2023-05-10T12:57:49.129Z,23.91
2023-05-10T13:00:34.415Z,23.92
2023-05-10T13:03:19.394Z,23.18
2023-05-10T13:06:04.671Z,23.33
2023-05-10T13:08:49.952Z,23.07
2023-05-10T13:11:35.430Z,22.53
2023-05-10T13:14:21.403Z,22.22
2023-05-10T13:17:06.614Z,21.96
2023-05-10T13:19:51.713Z,21.64
2023-05-10T13:22:40.653Z,21.55
2023-05-10T13:25:26.095Z,21.81
2023-05-10T13:28:11.271Z,21.90
2023-05-10T13:30:56.345Z,21.82
2023-05-10T13:33:41.580Z,22.22
2023-05-10T13:36:26.630Z,22.03
2023-05-10T13:39:11.908Z,22.03
2023-05-10T13:41:57.367Z,22.42
2023-05-10T13:44:42.516Z,22.73
2023-05-10T13:47:27.625Z,23.10
2023-05-10T13:50:12.899Z,23.39
2023-05-10T13:52:58.053Z,23.36
2023-05-10T13:55:43.164Z,22.89
2023-05-10T13:58:27.922Z,22.38
2023-05-10T14:01:13.184Z,22.25
2023-05-10T14:03:58.527Z,21.78
2023-05-10T14:06:43.377Z,21.47
2023-05-10T14:09:28.424Z,21.50
2023-05-10T14:12:15.425Z,21.30
2023-05-10T14:15:01.109Z,21.07
2023-05-10T14:17:46.037Z,20.74
2023-05-10T14:20:31.225Z,20.01
2023-05-10T14:23:16.198Z,19.58
2023-05-10T14:26:01.320Z,19.41
2023-05-10T14:28:46.966Z,19.19
2023-05-10T14:31:32.758Z,19.04
2023-05-10T14:34:17.645Z,18.88
2023-05-10T14:37:02.846Z,18.12
2023-05-10T14:39:48.223Z,17.77
2023-05-10T14:42:33.291Z,17.35
2023-05-10T14:45:18.553Z,17.13
2023-05-10T14:48:05.602Z,17.22
2023-05-10T14:50:51.214Z,17.41
2023-05-10T14:53:36.574Z,17.75
2023-05-10T14:56:22.268Z,18.05
2023-05-10T14:59:07.479Z,18.24
2023-05-10T15:01:53.148Z,18.16
2023-05-10T15:04:38.697Z,18.43
2023-05-10T15:07:24.720Z,19.38
2023-05-10T15:10:10.561Z,19.22
2023-05-10T15:12:55.877Z,18.90
2023-05-10T15:15:41.122Z,18.66
2023-05-10T15:18:26.705Z,18.58
2023-05-10T15:21:12.445Z,18.41
2023-05-10T15:23:57.396Z,18.55
2023-05-10T15:26:42.392Z,18.26
2023-05-10T15:29:27.707Z,18.27
2023-05-10T15:32:13.108Z,18.11
2023-05-10T15:35:00.242Z,19.18
2023-05-10T15:37:46.974Z,20.45
2023-05-10T15:40:32.001Z,20.73
2023-05-10T15:43:17.258Z,20.36
2023-05-10T15:46:02.185Z,19.78
2023-05-10T15:48:47.615Z,19.41
2023-05-10T15:51:35.355Z,19.17
2023-05-10T15:54:21.611Z,19.56
2023-05-10T15:57:06.875Z,19.54
2023-05-10T15:59:52.442Z,19.48
2023-05-10T16:02:37.943Z,19.24
2023-05-10T16:05:23.220Z,18.98
2023-05-10T16:08:08.401Z,18.80
2023-05-10T16:10:53.815Z,18.82
2023-05-10T16:13:38.995Z,18.71
2023-05-10T16:16:24.474Z,18.56
2023-05-10T16:19:09.903Z,18.64
2023-05-10T16:21:55.051Z,18.81
2023-05-10T16:24:40.007Z,18.43
2023-05-10T16:27:25.293Z,18.30
2023-05-10T16:30:10.870Z,18.23
2023-05-10T16:32:57.978Z,18.01
2023-05-10T16:35:43.890Z,17.74
2023-05-10T16:38:28.953Z,17.45
2023-05-10T16:41:13.887Z,17.33
2023-05-10T16:43:58.928Z,17.30
2023-05-10T16:46:44.010Z,17.19
2023-05-10T16:49:29.359Z,16.97
2023-05-10T16:52:14.427Z,16.87
2023-05-10T16:54:59.694Z,16.80
2023-05-10T16:57:44.745Z,16.80
2023-05-10T17:00:30.299Z,16.73
2023-05-10T17:03:15.565Z,16.74
2023-05-10T17:06:00.577Z,16.64
2023-05-10T17:08:46.710Z,16.62
2023-05-10T17:11:32.297Z,16.43
2023-05-10T17:14:17.471Z,16.40
2023-05-10T17:17:03.341Z,16.27
2023-05-10T17:19:48.482Z,16.22
2023-05-10T17:22:33.700Z,16.20
2023-05-10T17:25:19.442Z,16.18
2023-05-10T17:28:05.011Z,16.20
2023-05-10T17:30:57.045Z,16.09
2023-05-10T17:33:42.338Z,16.17
2023-05-10T17:36:28.259Z,16.20
2023-05-10T17:39:13.243Z,16.39
2023-05-10T17:41:58.303Z,16.42
2023-05-10T17:44:43.919Z,16.36
2023-05-10T17:47:29.354Z,16.32
2023-05-10T17:50:14.571Z,16.14
2023-05-10T17:52:59.616Z,16.05
2023-05-10T17:55:44.520Z,16.12
2023-05-10T17:58:30.257Z,16.16
2023-05-10T18:01:16.583Z,16.20
2023-05-10T18:04:01.511Z,16.15
2023-05-10T18:06:46.657Z,16.12
2023-05-10T18:09:31.837Z,15.96
2023-05-10T18:12:17.148Z,16.05
2023-05-10T18:15:02.146Z,15.99
2023-05-10T18:17:49.183Z,15.96
2023-05-10T18:20:34.375Z,15.93
2023-05-10T18:23:19.781Z,15.92
2023-05-10T18:26:05.018Z,15.84
2023-05-10T18:28:50.306Z,15.92
2023-05-10T18:31:35.557Z,15.84
2023-05-10T18:34:20.657Z,15.87
2023-05-10T18:37:07.455Z,15.79
2023-05-10T18:39:52.882Z,15.78
2023-05-10T18:42:38.108Z,15.76
2023-05-10T18:45:23.335Z,15.71
2023-05-10T18:48:08.366Z,15.56
2023-05-10T18:50:53.439Z,15.57
2023-05-10T18:53:38.609Z,15.54
2023-05-10T18:56:24.214Z,15.44
2023-05-10T18:59:09.307Z,15.38
2023-05-10T19:01:56.497Z,15.31
2023-05-10T19:04:42.332Z,15.24
2023-05-10T19:07:27.202Z,15.18
2023-05-10T19:10:13.479Z,15.23
2023-05-10T19:12:58.563Z,15.25
2023-05-10T19:15:43.714Z,15.16
2023-05-10T19:18:29.164Z,15.13
2023-05-10T19:21:15.231Z,15.15
2023-05-10T19:24:01.640Z,15.07
2023-05-10T19:26:48.566Z,14.95
2023-05-10T19:29:34.152Z,14.84
2023-05-10T19:32:19.441Z,14.71
2023-05-10T19:35:05.724Z,14.65
2023-05-10T19:37:51.112Z,14.65
2023-05-10T19:40:36.298Z,14.62
2023-05-10T19:43:21.647Z,14.53
2023-05-10T19:46:06.562Z,14.55
2023-05-10T19:48:52.096Z,14.52
2023-05-10T19:51:37.282Z,14.56
2023-05-10T19:54:22.541Z,14.47
2023-05-10T19:57:07.927Z,14.46
2023-05-10T19:59:53.010Z,14.47
2023-05-10T20:02:38.113Z,14.43
2023-05-10T20:05:23.063Z,14.54
2023-05-10T20:08:08.668Z,14.55
2023-05-10T20:10:53.783Z,14.55
2023-05-10T20:13:38.683Z,14.48
2023-05-10T20:16:26.458Z,14.46
2023-05-10T20:19:12.445Z,14.49
2023-05-10T20:21:58.648Z,14.51
2023-05-10T20:24:43.795Z,14.48
2023-05-10T20:27:29.036Z,14.48
2023-05-10T20:30:14.069Z,14.45
2023-05-10T20:32:59.223Z,14.32
2023-05-10T20:35:44.969Z,14.23
2023-05-10T20:38:29.828Z,14.08
2023-05-10T20:41:15.058Z,14.00
2023-05-10T20:44:00.393Z,14.07
2023-05-10T20:46:45.450Z,14.09
2023-05-10T20:49:30.852Z,14.11
2023-05-10T20:52:15.993Z,13.99
2023-05-10T20:55:01.071Z,14.01
2023-05-10T20:57:47.054Z,13.95
2023-05-10T21:00:32.175Z,13.90
2023-05-10T21:03:17.327Z,13.75
2023-05-10T21:06:02.474Z,13.75
2023-05-10T21:08:47.881Z,13.80
2023-05-10T21:11:36.231Z,13.80
2023-05-10T21:14:21.564Z,13.70
2023-05-10T21:17:07.019Z,13.59
2023-05-10T21:19:52.575Z,13.45
2023-05-10T21:22:37.699Z,13.44
2023-05-10T21:25:23.247Z,13.49
2023-05-10T21:28:08.172Z,13.38
2023-05-10T21:30:53.577Z,13.21
2023-05-10T21:33:39.359Z,13.31
2023-05-10T21:36:24.977Z,13.25
2023-05-10T21:39:11.103Z,13.07
2023-05-10T21:41:56.064Z,13.02
2023-05-10T21:44:41.183Z,13.00
2023-05-10T21:47:26.148Z,12.97
2023-05-10T21:50:12.627Z,12.93
2023-05-10T21:52:57.781Z,12.91
2023-05-10T21:55:43.071Z,12.86
2023-05-10T21:58:28.550Z,12.79
2023-05-10T22:01:14.982Z,12.76
2023-05-10T22:04:00.388Z,12.64
2023-05-10T22:06:45.273Z,12.63
2023-05-10T22:09:30.576Z,12.39
2023-05-10T22:12:15.866Z,12.43
2023-05-10T22:15:10.536Z,12.38
2023-05-10T22:17:56.300Z,12.21
2023-05-10T22:20:44.785Z,12.28
2023-05-10T22:23:30.210Z,12.24
2023-05-10T22:26:15.400Z,12.21
2023-05-10T22:29:00.464Z,12.21
2023-05-10T22:31:45.301Z,12.14
2023-05-10T22:34:30.256Z,12.10
2023-05-10T22:37:17.829Z,12.05
2023-05-10T22:40:03.936Z,11.91
2023-05-10T22:42:49.173Z,11.86
2023-05-10T22:45:35.718Z,11.85
2023-05-10T22:48:21.152Z,11.90
2023-05-10T22:51:06.206Z,11.85
2023-05-10T22:53:51.464Z,11.73
2023-05-10T22:56:36.723Z,11.55
2023-05-10T22:59:21.671Z,11.60
2023-05-10T23:02:07.052Z,11.66
2023-05-10T23:04:53.501Z,11.64
2023-05-10T23:07:38.541Z,11.55
2023-05-10T23:10:23.551Z,11.56
2023-05-10T23:13:08.800Z,11.48
2023-05-10T23:15:54.030Z,11.48
2023-05-10T23:18:39.622Z,11.49
2023-05-10T23:21:25.256Z,11.39
2023-05-10T23:24:11.600Z,11.32
2023-05-10T23:26:56.371Z,11.34
2023-05-10T23:29:41.838Z,11.39
2023-05-10T23:32:27.077Z,11.39
2023-05-10T23:35:11.924Z,11.33
2023-05-10T23:37:57.301Z,11.24
2023-05-10T23:40:42.605Z,11.20
2023-05-10T23:43:27.900Z,11.14
2023-05-10T23:46:12.874Z,11.13
2023-05-10T23:48:58.242Z,11.00
2023-05-10T23:51:43.174Z,11.06
2023-05-10T23:54:28.268Z,11.01
2023-05-10T23:57:13.602Z,11.00
2023-05-10T23:59:58.808Z,10.95
